OYSKJ LEXJ-LOWI
Flight info
| Callsign | OYSKJ |
|---|---|
| Flight time | 1h 58m |
| Altitude | 40000 |
| Route | BLV M601 PPN N995 LATEK DCT GONUP DCT TOU DCT GAI DCT MEN DCT NINUN DCT LATAM DCT ETREK DCT LTP DCT SOPLO DCT OMASI DCT KINNI DCT LAMUR DCT KORED DCT BERSU DCT DITON DCT DEGES DCT GAMSA N871 MADEB |
| Aircraft | CL60/M-SBDE1E2E3FGHIJ1J4J5J7M3RWXYZ/LB1V1D1 |
Departure
| Time | 2026-05-06 13:02 |
|---|---|
| Airport | Seve Ballesteros-Santander Airport (LEXJ) |
Arrival
| Time | 2026-05-06 15:00 |
|---|---|
| Airport | Innsbruck Airport (LOWI) |
| Time | Latitude | Longitude | Altitude | Speed | Heading |
|---|---|---|---|---|---|
| 2026-05-06 12:39 | 43.42552 | -3.82395 | 17 ft | 0 kts | 290° |
| 2026-05-06 12:56 | 43.42553 | -3.82401 | 17 ft | 1 kts | 272° |
| 2026-05-06 12:57 | 43.42538 | -3.82411 | 17 ft | 3 kts | 149° |
| 2026-05-06 12:57 | 43.42532 | -3.82375 | 17 ft | 4 kts | 101° |
| 2026-05-06 12:57 | 43.42530 | -3.82327 | 17 ft | 5 kts | 36° |
| 2026-05-06 12:57 | 43.42581 | -3.82301 | 17 ft | 9 kts | 27° |
| 2026-05-06 12:58 | 43.42594 | -3.82212 | 17 ft | 12 kts | 110° |
| 2026-05-06 12:58 | 43.42561 | -3.82085 | 17 ft | 15 kts | 110° |
| 2026-05-06 12:58 | 43.42519 | -3.81929 | 17 ft | 18 kts | 110° |
| 2026-05-06 12:58 | 43.42470 | -3.81747 | 17 ft | 21 kts | 110° |
| 2026-05-06 12:59 | 43.42419 | -3.81558 | 18 ft | 13 kts | 110° |
| 2026-05-06 12:59 | 43.42387 | -3.81440 | 18 ft | 10 kts | 110° |
| 2026-05-06 12:59 | 43.42378 | -3.81369 | 18 ft | 7 kts | 70° |
| 2026-05-06 12:59 | 43.42411 | -3.81332 | 18 ft | 3 kts | 20° |
| 2026-05-06 13:00 | 43.42421 | -3.81327 | 18 ft | 0 kts | 20° |
| 2026-05-06 13:00 | 43.42446 | -3.81314 | 18 ft | 7 kts | 20° |
| 2026-05-06 13:01 | 43.42504 | -3.81286 | 18 ft | 6 kts | 7° |
| 2026-05-06 13:01 | 43.42525 | -3.81320 | 18 ft | 0 kts | 288° |
| 2026-05-06 13:01 | 43.42597 | -3.81590 | 18 ft | 82 kts | 290° |
| 2026-05-06 13:01 | 43.42907 | -3.82765 | 107 ft | 164 kts | 289° |
| 2026-05-06 13:02 | 43.43322 | -3.84264 | 1043 ft | 177 kts | 294° |
| 2026-05-06 13:02 | 43.43774 | -3.85831 | 2116 ft | 187 kts | 294° |
| 2026-05-06 13:02 | 43.44275 | -3.87615 | 2960 ft | 215 kts | 293° |
| 2026-05-06 13:02 | 43.44805 | -3.89536 | 4262 ft | 223 kts | 293° |
| 2026-05-06 13:03 | 43.45385 | -3.91500 | 5611 ft | 228 kts | 301° |
| 2026-05-06 13:03 | 43.46507 | -3.92914 | 6946 ft | 231 kts | 339° |
| 2026-05-06 13:03 | 43.48070 | -3.93012 | 8295 ft | 234 kts | 18° |
| 2026-05-06 13:03 | 43.49343 | -3.91711 | 9563 ft | 242 kts | 56° |
| 2026-05-06 13:04 | 43.49786 | -3.89488 | 10796 ft | 251 kts | 94° |
| 2026-05-06 13:04 | 43.49197 | -3.87256 | 11974 ft | 259 kts | 121° |
| 2026-05-06 13:04 | 43.48215 | -3.85192 | 13100 ft | 266 kts | 122° |
| 2026-05-06 13:04 | 43.47489 | -3.82866 | 14236 ft | 269 kts | 99° |
| 2026-05-06 13:05 | 43.47530 | -3.80334 | 15319 ft | 271 kts | 72° |
| 2026-05-06 13:05 | 43.48153 | -3.77867 | 16300 ft | 279 kts | 67° |
| 2026-05-06 13:05 | 43.48882 | -3.75174 | 16377 ft | 321 kts | 68° |
| 2026-05-06 13:05 | 43.49693 | -3.72138 | 16616 ft | 351 kts | 68° |
| 2026-05-06 13:06 | 43.50556 | -3.68892 | 17355 ft | 364 kts | 68° |
| 2026-05-06 13:06 | 43.51426 | -3.65610 | 18300 ft | 369 kts | 68° |
| 2026-05-06 13:06 | 43.52314 | -3.62256 | 19290 ft | 373 kts | 68° |
| 2026-05-06 13:06 | 43.53207 | -3.58879 | 20243 ft | 377 kts | 68° |
| 2026-05-06 13:07 | 43.53938 | -3.55389 | 21155 ft | 383 kts | 79° |
| 2026-05-06 13:07 | 43.53982 | -3.51745 | 22002 ft | 390 kts | 96° |
| 2026-05-06 13:07 | 43.53231 | -3.48151 | 22812 ft | 397 kts | 114° |
| 2026-05-06 13:07 | 43.51872 | -3.44746 | 23554 ft | 403 kts | 119° |
| 2026-05-06 13:08 | 43.50468 | -3.41414 | 24353 ft | 407 kts | 118° |
| 2026-05-06 13:08 | 43.49044 | -3.38018 | 25124 ft | 412 kts | 118° |
| 2026-05-06 13:08 | 43.47602 | -3.34561 | 25845 ft | 416 kts | 118° |
| 2026-05-06 13:08 | 43.46187 | -3.31086 | 26518 ft | 419 kts | 118° |
| 2026-05-06 13:09 | 43.44741 | -3.27533 | 27174 ft | 423 kts | 118° |
| 2026-05-06 13:09 | 43.43293 | -3.23980 | 27746 ft | 427 kts | 118° |
| 2026-05-06 13:09 | 43.41828 | -3.20390 | 28337 ft | 431 kts | 118° |
| 2026-05-06 13:09 | 43.40365 | -3.16807 | 28886 ft | 434 kts | 118° |
| 2026-05-06 13:10 | 43.38882 | -3.13179 | 29392 ft | 438 kts | 118° |
| 2026-05-06 13:10 | 43.37373 | -3.09493 | 29909 ft | 441 kts | 118° |
| 2026-05-06 13:10 | 43.35852 | -3.05780 | 30390 ft | 444 kts | 118° |
| 2026-05-06 13:10 | 43.34336 | -3.02085 | 30838 ft | 447 kts | 118° |
| 2026-05-06 13:11 | 43.32803 | -2.98353 | 31227 ft | 450 kts | 118° |
| 2026-05-06 13:11 | 43.31249 | -2.94575 | 31538 ft | 454 kts | 118° |
| 2026-05-06 13:11 | 43.29607 | -2.90783 | 31822 ft | 459 kts | 121° |
| 2026-05-06 13:11 | 43.27898 | -2.87068 | 32088 ft | 463 kts | 121° |
| 2026-05-06 13:12 | 43.26186 | -2.83356 | 32348 ft | 466 kts | 122° |
| 2026-05-06 13:12 | 43.24430 | -2.79550 | 32623 ft | 469 kts | 122° |
| 2026-05-06 13:12 | 43.22686 | -2.75776 | 32935 ft | 470 kts | 122° |
| 2026-05-06 13:12 | 43.20927 | -2.71975 | 33269 ft | 471 kts | 122° |
| 2026-05-06 13:13 | 43.19161 | -2.68160 | 33578 ft | 471 kts | 122° |
| 2026-05-06 13:13 | 43.17388 | -2.64339 | 33855 ft | 472 kts | 123° |
| 2026-05-06 13:13 | 43.15630 | -2.60550 | 34099 ft | 473 kts | 123° |
| 2026-05-06 13:13 | 43.13851 | -2.56725 | 34319 ft | 474 kts | 123° |
| 2026-05-06 13:14 | 43.12086 | -2.52934 | 34531 ft | 476 kts | 123° |
| 2026-05-06 13:14 | 43.10282 | -2.49062 | 34831 ft | 476 kts | 123° |
| 2026-05-06 13:14 | 43.08507 | -2.45259 | 35100 ft | 476 kts | 123° |
| 2026-05-06 13:14 | 43.06720 | -2.41434 | 35378 ft | 476 kts | 123° |
| 2026-05-06 13:15 | 43.04940 | -2.37630 | 35664 ft | 475 kts | 123° |
| 2026-05-06 13:15 | 43.03149 | -2.33805 | 35945 ft | 474 kts | 124° |
| 2026-05-06 13:15 | 43.01377 | -2.30027 | 36210 ft | 473 kts | 124° |
| 2026-05-06 13:15 | 42.99594 | -2.26230 | 36462 ft | 472 kts | 124° |
| 2026-05-06 13:16 | 42.97817 | -2.22440 | 36693 ft | 472 kts | 124° |
| 2026-05-06 13:16 | 42.96050 | -2.18634 | 36903 ft | 473 kts | 124° |
| 2026-05-06 13:16 | 42.94291 | -2.14849 | 37093 ft | 474 kts | 124° |
| 2026-05-06 13:16 | 42.92525 | -2.11051 | 37321 ft | 473 kts | 124° |
| 2026-05-06 13:17 | 42.90758 | -2.07258 | 37515 ft | 474 kts | 125° |
| 2026-05-06 13:17 | 42.88977 | -2.03439 | 37709 ft | 474 kts | 124° |
| 2026-05-06 13:17 | 42.87211 | -1.99657 | 37900 ft | 473 kts | 124° |
| 2026-05-06 13:17 | 42.85443 | -1.95876 | 38074 ft | 474 kts | 125° |
| 2026-05-06 13:18 | 42.83669 | -1.92086 | 38237 ft | 474 kts | 124° |
| 2026-05-06 13:18 | 42.81895 | -1.88298 | 38388 ft | 475 kts | 125° |
| 2026-05-06 13:18 | 42.80103 | -1.84476 | 38558 ft | 474 kts | 125° |
| 2026-05-06 13:18 | 42.78437 | -1.80611 | 38736 ft | 476 kts | 119° |
| 2026-05-06 13:19 | 42.77058 | -1.76482 | 38912 ft | 477 kts | 112° |
| 2026-05-06 13:19 | 42.76027 | -1.72190 | 39105 ft | 478 kts | 106° |
| 2026-05-06 13:19 | 42.75354 | -1.67751 | 39298 ft | 478 kts | 99° |
| 2026-05-06 13:19 | 42.75054 | -1.63245 | 39471 ft | 478 kts | 92° |
| 2026-05-06 13:20 | 42.75137 | -1.58746 | 39629 ft | 478 kts | 85° |
| 2026-05-06 13:20 | 42.75600 | -1.54223 | 39755 ft | 479 kts | 79° |
| 2026-05-06 13:20 | 42.76218 | -1.49778 | 39872 ft | 479 kts | 79° |
| 2026-05-06 13:20 | 42.76839 | -1.45303 | 39990 ft | 480 kts | 79° |
| 2026-05-06 13:21 | 42.77452 | -1.40861 | 39990 ft | 483 kts | 79° |
| 2026-05-06 13:21 | 42.78699 | -1.31778 | 39989 ft | 488 kts | 80° |
| 2026-05-06 13:22 | 42.79946 | -1.22633 | 39995 ft | 491 kts | 80° |
| 2026-05-06 13:22 | 42.81184 | -1.13494 | 39982 ft | 493 kts | 80° |
| 2026-05-06 13:23 | 42.82427 | -1.04254 | 39979 ft | 493 kts | 80° |
| 2026-05-06 13:23 | 42.83658 | -0.95042 | 39976 ft | 492 kts | 80° |
| 2026-05-06 13:24 | 42.84873 | -0.85889 | 39972 ft | 493 kts | 80° |
| 2026-05-06 13:24 | 42.86086 | -0.76691 | 39977 ft | 492 kts | 80° |
| 2026-05-06 13:25 | 42.87535 | -0.67508 | 39975 ft | 492 kts | 72° |
| 2026-05-06 13:25 | 42.90316 | -0.59043 | 39956 ft | 491 kts | 59° |
| 2026-05-06 13:26 | 42.93740 | -0.50956 | 39943 ft | 491 kts | 59° |
| 2026-05-06 13:26 | 42.97171 | -0.42819 | 39930 ft | 491 kts | 59° |
| 2026-05-06 13:27 | 43.00561 | -0.34755 | 39943 ft | 491 kts | 59° |
| 2026-05-06 13:27 | 43.03926 | -0.26727 | 39936 ft | 490 kts | 59° |
| 2026-05-06 13:28 | 43.07313 | -0.18620 | 39961 ft | 490 kts | 59° |
| 2026-05-06 13:28 | 43.10706 | -0.10477 | 39959 ft | 490 kts | 59° |
| 2026-05-06 13:29 | 43.14076 | -0.02366 | 39958 ft | 491 kts | 60° |
| 2026-05-06 13:29 | 43.17460 | 0.05804 | 39957 ft | 490 kts | 60° |
| 2026-05-06 13:30 | 43.20819 | 0.13935 | 39952 ft | 490 kts | 60° |
| 2026-05-06 13:30 | 43.24180 | 0.22095 | 39945 ft | 490 kts | 60° |
| 2026-05-06 13:31 | 43.27555 | 0.30311 | 39942 ft | 490 kts | 60° |
| 2026-05-06 13:31 | 43.30896 | 0.38470 | 39940 ft | 491 kts | 60° |
| 2026-05-06 13:32 | 43.34246 | 0.46675 | 39938 ft | 491 kts | 60° |
| 2026-05-06 13:32 | 43.37590 | 0.54885 | 39932 ft | 491 kts | 60° |
| 2026-05-06 13:33 | 43.40918 | 0.63082 | 39930 ft | 491 kts | 60° |
| 2026-05-06 13:33 | 43.44247 | 0.71305 | 39925 ft | 491 kts | 61° |
| 2026-05-06 13:34 | 43.47584 | 0.79574 | 39925 ft | 491 kts | 61° |
| 2026-05-06 13:34 | 43.50893 | 0.87798 | 39920 ft | 491 kts | 61° |
| 2026-05-06 13:35 | 43.54207 | 0.96059 | 39916 ft | 491 kts | 61° |
| 2026-05-06 13:35 | 43.57511 | 1.04320 | 39925 ft | 490 kts | 61° |
| 2026-05-06 13:36 | 43.60791 | 1.12546 | 39923 ft | 490 kts | 61° |
| 2026-05-06 13:36 | 43.64093 | 1.20851 | 39926 ft | 490 kts | 61° |
| 2026-05-06 13:37 | 43.67382 | 1.29137 | 39926 ft | 491 kts | 60° |
| 2026-05-06 13:37 | 43.71255 | 1.36943 | 39930 ft | 491 kts | 52° |
| 2026-05-06 13:38 | 43.75312 | 1.44517 | 39921 ft | 491 kts | 53° |
| 2026-05-06 13:38 | 43.79387 | 1.52154 | 39920 ft | 491 kts | 52° |
| 2026-05-06 13:39 | 43.83443 | 1.59776 | 39920 ft | 490 kts | 53° |
| 2026-05-06 13:39 | 43.87501 | 1.67427 | 39920 ft | 490 kts | 53° |
| 2026-05-06 13:40 | 43.91528 | 1.75041 | 39925 ft | 490 kts | 53° |
| 2026-05-06 13:40 | 43.95564 | 1.82702 | 39923 ft | 490 kts | 54° |
| 2026-05-06 13:41 | 43.99460 | 1.90471 | 39933 ft | 490 kts | 55° |
| 2026-05-06 13:41 | 44.03363 | 1.98310 | 39931 ft | 491 kts | 55° |
| 2026-05-06 13:42 | 44.07250 | 2.06137 | 39931 ft | 491 kts | 55° |
| 2026-05-06 13:42 | 44.11140 | 2.13993 | 39926 ft | 491 kts | 55° |
| 2026-05-06 13:43 | 44.15019 | 2.21844 | 39924 ft | 490 kts | 55° |
| 2026-05-06 13:43 | 44.18883 | 2.29686 | 39924 ft | 490 kts | 55° |
| 2026-05-06 13:44 | 44.22755 | 2.37566 | 39925 ft | 490 kts | 55° |
| 2026-05-06 13:44 | 44.26599 | 2.45409 | 39925 ft | 491 kts | 55° |
| 2026-05-06 13:45 | 44.30456 | 2.53301 | 39930 ft | 491 kts | 55° |
| 2026-05-06 13:45 | 44.36259 | 2.65213 | 39926 ft | 492 kts | 56° |
| 2026-05-06 13:46 | 44.40115 | 2.73157 | 39922 ft | 492 kts | 56° |
| 2026-05-06 13:46 | 44.43943 | 2.81062 | 39912 ft | 492 kts | 56° |
| 2026-05-06 13:47 | 44.47782 | 2.89014 | 39918 ft | 491 kts | 56° |
| 2026-05-06 13:47 | 44.51608 | 2.96962 | 39919 ft | 491 kts | 56° |
| 2026-05-06 13:48 | 44.55450 | 3.04963 | 39917 ft | 492 kts | 56° |
| 2026-05-06 13:48 | 44.59273 | 3.12946 | 39909 ft | 492 kts | 56° |
| 2026-05-06 13:49 | 44.62859 | 3.21116 | 39902 ft | 492 kts | 61° |
| 2026-05-06 13:49 | 44.66221 | 3.29528 | 39893 ft | 492 kts | 61° |
| 2026-05-06 13:50 | 44.69578 | 3.37936 | 39891 ft | 492 kts | 61° |
| 2026-05-06 13:50 | 44.72928 | 3.46347 | 39884 ft | 492 kts | 61° |
| 2026-05-06 13:51 | 44.76266 | 3.54750 | 39880 ft | 492 kts | 61° |
| 2026-05-06 13:51 | 44.79612 | 3.63194 | 39892 ft | 491 kts | 61° |
| 2026-05-06 13:52 | 44.82932 | 3.71595 | 39900 ft | 491 kts | 62° |
| 2026-05-06 13:52 | 44.86267 | 3.80059 | 39900 ft | 492 kts | 62° |
| 2026-05-06 13:53 | 44.89585 | 3.88505 | 39906 ft | 492 kts | 62° |
| 2026-05-06 13:53 | 44.92903 | 3.96973 | 39907 ft | 492 kts | 62° |
| 2026-05-06 13:54 | 44.96221 | 4.05469 | 39908 ft | 492 kts | 62° |
| 2026-05-06 13:54 | 44.99509 | 4.13912 | 39895 ft | 492 kts | 62° |
| 2026-05-06 13:55 | 45.02824 | 4.22449 | 39881 ft | 492 kts | 62° |
| 2026-05-06 13:55 | 45.06109 | 4.30936 | 39876 ft | 492 kts | 62° |
| 2026-05-06 13:56 | 45.09386 | 4.39427 | 39882 ft | 492 kts | 62° |
| 2026-05-06 13:56 | 45.12691 | 4.48019 | 39879 ft | 491 kts | 62° |
| 2026-05-06 13:57 | 45.15950 | 4.56516 | 39886 ft | 490 kts | 62° |
| 2026-05-06 13:57 | 45.19198 | 4.65009 | 39881 ft | 491 kts | 63° |
| 2026-05-06 13:58 | 45.22483 | 4.73627 | 39881 ft | 491 kts | 63° |
| 2026-05-06 13:58 | 45.25738 | 4.82193 | 39880 ft | 491 kts | 63° |
| 2026-05-06 13:59 | 45.28967 | 4.90717 | 39870 ft | 492 kts | 63° |
| 2026-05-06 13:59 | 45.32223 | 4.99340 | 39873 ft | 491 kts | 63° |
| 2026-05-06 14:00 | 45.35441 | 5.07888 | 39884 ft | 491 kts | 63° |
| 2026-05-06 14:00 | 45.38656 | 5.16453 | 39890 ft | 490 kts | 63° |
| 2026-05-06 14:01 | 45.41855 | 5.25006 | 39896 ft | 490 kts | 63° |
| 2026-05-06 14:01 | 45.45074 | 5.33637 | 39899 ft | 490 kts | 63° |
| 2026-05-06 14:02 | 45.48500 | 5.42058 | 39898 ft | 492 kts | 55° |
| 2026-05-06 14:02 | 45.53098 | 5.49266 | 39897 ft | 494 kts | 41° |
| 2026-05-06 14:03 | 45.58279 | 5.55871 | 39892 ft | 498 kts | 41° |
| 2026-05-06 14:03 | 45.63462 | 5.62502 | 39899 ft | 503 kts | 41° |
| 2026-05-06 14:04 | 45.68715 | 5.69241 | 39900 ft | 506 kts | 42° |
| 2026-05-06 14:04 | 45.73967 | 5.75992 | 39903 ft | 506 kts | 42° |
| 2026-05-06 14:05 | 45.79223 | 5.82744 | 39904 ft | 506 kts | 42° |
| 2026-05-06 14:05 | 45.84469 | 5.89500 | 39905 ft | 505 kts | 42° |
| 2026-05-06 14:06 | 45.89683 | 5.96234 | 39905 ft | 504 kts | 42° |
| 2026-05-06 14:06 | 45.94908 | 6.02999 | 39902 ft | 504 kts | 42° |
| 2026-05-06 14:07 | 46.00138 | 6.09788 | 39900 ft | 506 kts | 42° |
| 2026-05-06 14:07 | 46.05365 | 6.16591 | 39911 ft | 506 kts | 42° |
| 2026-05-06 14:08 | 46.10218 | 6.23918 | 39907 ft | 505 kts | 54° |
| 2026-05-06 14:08 | 46.14295 | 6.32218 | 39898 ft | 504 kts | 56° |
| 2026-05-06 14:09 | 46.18337 | 6.40518 | 39906 ft | 505 kts | 56° |
| 2026-05-06 14:09 | 46.22382 | 6.48846 | 39908 ft | 505 kts | 56° |
| 2026-05-06 14:10 | 46.26413 | 6.57168 | 39895 ft | 505 kts | 56° |
| 2026-05-06 14:10 | 46.30444 | 6.65514 | 39902 ft | 505 kts | 56° |
| 2026-05-06 14:11 | 46.34489 | 6.73912 | 39916 ft | 505 kts | 57° |
| 2026-05-06 14:11 | 46.38522 | 6.82310 | 39917 ft | 506 kts | 57° |
| 2026-05-06 14:12 | 46.42526 | 6.90674 | 39922 ft | 506 kts | 57° |
| 2026-05-06 14:12 | 46.46534 | 6.99072 | 39912 ft | 506 kts | 57° |
| 2026-05-06 14:13 | 46.50570 | 7.07551 | 39902 ft | 507 kts | 57° |
| 2026-05-06 14:13 | 46.54689 | 7.15865 | 39903 ft | 508 kts | 51° |
| 2026-05-06 14:14 | 46.59739 | 7.22996 | 39899 ft | 509 kts | 37° |
| 2026-05-06 14:14 | 46.65805 | 7.28407 | 39890 ft | 508 kts | 24° |
| 2026-05-06 14:15 | 46.72243 | 7.32752 | 39894 ft | 508 kts | 23° |
| 2026-05-06 14:15 | 46.78661 | 7.37109 | 39882 ft | 508 kts | 25° |
| 2026-05-06 14:16 | 46.84618 | 7.42582 | 39877 ft | 508 kts | 38° |
| 2026-05-06 14:16 | 46.89671 | 7.49895 | 39890 ft | 508 kts | 51° |
| 2026-05-06 14:17 | 46.94091 | 7.58024 | 39893 ft | 508 kts | 52° |
| 2026-05-06 14:17 | 46.98418 | 7.66020 | 39896 ft | 509 kts | 53° |
| 2026-05-06 14:18 | 47.02840 | 7.74212 | 39903 ft | 509 kts | 52° |
| 2026-05-06 14:18 | 47.07243 | 7.82392 | 39899 ft | 509 kts | 52° |
| 2026-05-06 14:19 | 47.11628 | 7.90562 | 39897 ft | 509 kts | 52° |
| 2026-05-06 14:19 | 47.15696 | 7.99069 | 39894 ft | 509 kts | 59° |
| 2026-05-06 14:20 | 47.19456 | 8.07916 | 39900 ft | 508 kts | 59° |
| 2026-05-06 14:20 | 47.23204 | 8.16745 | 39442 ft | 509 kts | 59° |
| 2026-05-06 14:21 | 47.25051 | 8.21104 | 38918 ft | 504 kts | 59° |
| 2026-05-06 14:21 | 47.26913 | 8.25504 | 38406 ft | 498 kts | 59° |
| 2026-05-06 14:21 | 47.28635 | 8.29905 | 37877 ft | 498 kts | 65° |
| 2026-05-06 14:21 | 47.30011 | 8.34594 | 37266 ft | 495 kts | 73° |
| 2026-05-06 14:22 | 47.30988 | 8.39445 | 36735 ft | 493 kts | 80° |
| 2026-05-06 14:22 | 47.31667 | 8.44364 | 36145 ft | 492 kts | 83° |
| 2026-05-06 14:22 | 47.32304 | 8.49315 | 35639 ft | 492 kts | 83° |
| 2026-05-06 14:22 | 47.32939 | 8.54254 | 35079 ft | 494 kts | 84° |
| 2026-05-06 14:23 | 47.33577 | 8.59225 | 34534 ft | 495 kts | 84° |
| 2026-05-06 14:23 | 47.34216 | 8.64226 | 33966 ft | 496 kts | 84° |
| 2026-05-06 14:23 | 47.34854 | 8.69229 | 33410 ft | 496 kts | 85° |
| 2026-05-06 14:23 | 47.35487 | 8.74204 | 32887 ft | 494 kts | 85° |
| 2026-05-06 14:24 | 47.36120 | 8.79196 | 32340 ft | 490 kts | 85° |
| 2026-05-06 14:24 | 47.36740 | 8.84102 | 31792 ft | 486 kts | 85° |
| 2026-05-06 14:24 | 47.37352 | 8.88950 | 31267 ft | 480 kts | 85° |
| 2026-05-06 14:24 | 47.37964 | 8.93823 | 30748 ft | 476 kts | 85° |
| 2026-05-06 14:25 | 47.38561 | 8.98592 | 30200 ft | 471 kts | 85° |
| 2026-05-06 14:25 | 47.39155 | 9.03359 | 29697 ft | 467 kts | 85° |
| 2026-05-06 14:25 | 47.39735 | 9.08027 | 29186 ft | 463 kts | 85° |
| 2026-05-06 14:25 | 47.40319 | 9.12749 | 28668 ft | 459 kts | 85° |
| 2026-05-06 14:26 | 47.40886 | 9.17339 | 28152 ft | 454 kts | 84° |
| 2026-05-06 14:26 | 47.41251 | 9.21903 | 27652 ft | 441 kts | 94° |
| 2026-05-06 14:26 | 47.41226 | 9.26426 | 27134 ft | 435 kts | 96° |
| 2026-05-06 14:26 | 47.41184 | 9.30860 | 26658 ft | 430 kts | 96° |
| 2026-05-06 14:27 | 47.41145 | 9.35231 | 26182 ft | 426 kts | 95° |
| 2026-05-06 14:27 | 47.41103 | 9.39591 | 25704 ft | 423 kts | 95° |
| 2026-05-06 14:27 | 47.41061 | 9.43952 | 25227 ft | 418 kts | 95° |
| 2026-05-06 14:27 | 47.41019 | 9.48246 | 24768 ft | 414 kts | 94° |
| 2026-05-06 14:28 | 47.40976 | 9.52463 | 24314 ft | 410 kts | 94° |
| 2026-05-06 14:28 | 47.40932 | 9.56647 | 23861 ft | 407 kts | 94° |
| 2026-05-06 14:28 | 47.40887 | 9.60816 | 23404 ft | 403 kts | 94° |
| 2026-05-06 14:28 | 47.40818 | 9.64947 | 22954 ft | 398 kts | 98° |
| 2026-05-06 14:29 | 47.40406 | 9.68886 | 22509 ft | 391 kts | 105° |
| 2026-05-06 14:29 | 47.39882 | 9.72831 | 22073 ft | 388 kts | 105° |
| 2026-05-06 14:29 | 47.39368 | 9.76738 | 21659 ft | 387 kts | 105° |
| 2026-05-06 14:29 | 47.38855 | 9.80628 | 21225 ft | 385 kts | 105° |
| 2026-05-06 14:30 | 47.38343 | 9.84519 | 20831 ft | 382 kts | 105° |
| 2026-05-06 14:30 | 47.37832 | 9.88386 | 20400 ft | 380 kts | 105° |
| 2026-05-06 14:30 | 47.37326 | 9.92207 | 19964 ft | 380 kts | 105° |
| 2026-05-06 14:30 | 47.36862 | 9.95714 | 19602 ft | 377 kts | 105° |
| 2026-05-06 14:31 | 47.36362 | 9.99488 | 19305 ft | 374 kts | 105° |
| 2026-05-06 14:31 | 47.35854 | 10.03301 | 18964 ft | 375 kts | 105° |
| 2026-05-06 14:31 | 47.35350 | 10.07083 | 18545 ft | 373 kts | 105° |
| 2026-05-06 14:31 | 47.34846 | 10.10858 | 18138 ft | 371 kts | 105° |
| 2026-05-06 14:32 | 47.34351 | 10.14557 | 17768 ft | 369 kts | 105° |
| 2026-05-06 14:32 | 47.33854 | 10.18269 | 17337 ft | 365 kts | 105° |
| 2026-05-06 14:32 | 47.33358 | 10.21953 | 16905 ft | 364 kts | 105° |
| 2026-05-06 14:32 | 47.32867 | 10.25607 | 16553 ft | 361 kts | 105° |
| 2026-05-06 14:33 | 47.32373 | 10.29261 | 16169 ft | 359 kts | 105° |
| 2026-05-06 14:33 | 47.31883 | 10.32853 | 15723 ft | 358 kts | 105° |
| 2026-05-06 14:33 | 47.31395 | 10.36426 | 15346 ft | 355 kts | 105° |
| 2026-05-06 14:33 | 47.30904 | 10.40006 | 14946 ft | 353 kts | 105° |
| 2026-05-06 14:34 | 47.30416 | 10.43553 | 14537 ft | 351 kts | 104° |
| 2026-05-06 14:34 | 47.29930 | 10.47085 | 14170 ft | 349 kts | 104° |
| 2026-05-06 14:34 | 47.29451 | 10.50551 | 13775 ft | 347 kts | 104° |
| 2026-05-06 14:34 | 47.28964 | 10.54075 | 13390 ft | 345 kts | 104° |
| 2026-05-06 14:35 | 47.28690 | 10.57540 | 13113 ft | 345 kts | 90° |
| 2026-05-06 14:35 | 47.29008 | 10.61102 | 13071 ft | 346 kts | 82° |
| 2026-05-06 14:35 | 47.29404 | 10.64594 | 13102 ft | 347 kts | 82° |
| 2026-05-06 14:35 | 47.29791 | 10.68080 | 13132 ft | 348 kts | 83° |
| 2026-05-06 14:36 | 47.30176 | 10.71562 | 13070 ft | 349 kts | 83° |
| 2026-05-06 14:36 | 47.30571 | 10.75134 | 13072 ft | 347 kts | 83° |
| 2026-05-06 14:36 | 47.30961 | 10.78668 | 13138 ft | 349 kts | 83° |
| 2026-05-06 14:36 | 47.31353 | 10.82233 | 13075 ft | 347 kts | 83° |
| 2026-05-06 14:37 | 47.31740 | 10.85755 | 13089 ft | 347 kts | 83° |
| 2026-05-06 14:37 | 47.32126 | 10.89279 | 13109 ft | 347 kts | 83° |
| 2026-05-06 14:37 | 47.32510 | 10.92800 | 13118 ft | 348 kts | 83° |
| 2026-05-06 14:37 | 47.32891 | 10.96302 | 13116 ft | 348 kts | 83° |
| 2026-05-06 14:38 | 47.33275 | 10.99832 | 13090 ft | 339 kts | 83° |
| 2026-05-06 14:38 | 47.33640 | 11.03181 | 13098 ft | 319 kts | 83° |
| 2026-05-06 14:38 | 47.33986 | 11.06367 | 13120 ft | 316 kts | 83° |
| 2026-05-06 14:38 | 47.34331 | 11.09572 | 13120 ft | 314 kts | 83° |
| 2026-05-06 14:39 | 47.34676 | 11.12776 | 13084 ft | 314 kts | 83° |
| 2026-05-06 14:39 | 47.35018 | 11.15960 | 13080 ft | 313 kts | 83° |
| 2026-05-06 14:39 | 47.35358 | 11.19141 | 13069 ft | 313 kts | 83° |
| 2026-05-06 14:39 | 47.35695 | 11.22297 | 13070 ft | 313 kts | 83° |
| 2026-05-06 14:40 | 47.36036 | 11.25512 | 13061 ft | 314 kts | 83° |
| 2026-05-06 14:40 | 47.36377 | 11.28725 | 13059 ft | 314 kts | 83° |
| 2026-05-06 14:40 | 47.36713 | 11.31897 | 13067 ft | 314 kts | 83° |
| 2026-05-06 14:40 | 47.37052 | 11.35104 | 13067 ft | 313 kts | 83° |
| 2026-05-06 14:41 | 47.37384 | 11.38261 | 13077 ft | 313 kts | 84° |
| 2026-05-06 14:41 | 47.37719 | 11.41449 | 13076 ft | 314 kts | 83° |
| 2026-05-06 14:41 | 47.38055 | 11.44672 | 13070 ft | 314 kts | 83° |
| 2026-05-06 14:41 | 47.38386 | 11.47841 | 13095 ft | 314 kts | 83° |
| 2026-05-06 14:42 | 47.38721 | 11.51062 | 12933 ft | 313 kts | 84° |
| 2026-05-06 14:42 | 47.39048 | 11.54201 | 12637 ft | 307 kts | 84° |
| 2026-05-06 14:42 | 47.39370 | 11.57303 | 12332 ft | 301 kts | 83° |
| 2026-05-06 14:42 | 47.39682 | 11.60316 | 12045 ft | 295 kts | 83° |
| 2026-05-06 14:43 | 47.39992 | 11.63318 | 11755 ft | 291 kts | 83° |
| 2026-05-06 14:43 | 47.40292 | 11.66244 | 11435 ft | 288 kts | 84° |
| 2026-05-06 14:43 | 47.40588 | 11.69128 | 11130 ft | 283 kts | 84° |
| 2026-05-06 14:43 | 47.40883 | 11.72007 | 10846 ft | 278 kts | 84° |
| 2026-05-06 14:44 | 47.41172 | 11.74832 | 10529 ft | 275 kts | 84° |
| 2026-05-06 14:44 | 47.41453 | 11.77594 | 10221 ft | 271 kts | 85° |
| 2026-05-06 14:44 | 47.41729 | 11.80312 | 9944 ft | 265 kts | 85° |
| 2026-05-06 14:45 | 47.42281 | 11.85508 | 9672 ft | 246 kts | 84° |
| 2026-05-06 14:45 | 47.42554 | 11.87978 | 9573 ft | 235 kts | 84° |
| 2026-05-06 14:45 | 47.42769 | 11.90296 | 9603 ft | 217 kts | 95° |
| 2026-05-06 14:45 | 47.42331 | 11.92287 | 9586 ft | 197 kts | 134° |
| 2026-05-06 14:46 | 47.41195 | 11.93224 | 9587 ft | 190 kts | 175° |
| 2026-05-06 14:46 | 47.39929 | 11.92703 | 9618 ft | 193 kts | 216° |
| 2026-05-06 14:46 | 47.38936 | 11.91348 | 9637 ft | 196 kts | 224° |
| 2026-05-06 14:46 | 47.37981 | 11.89894 | 9625 ft | 197 kts | 224° |
| 2026-05-06 14:47 | 47.37017 | 11.88432 | 9599 ft | 197 kts | 223° |
| 2026-05-06 14:47 | 47.36034 | 11.87051 | 9584 ft | 196 kts | 221° |
| 2026-05-06 14:47 | 47.35039 | 11.85666 | 9592 ft | 196 kts | 221° |
| 2026-05-06 14:47 | 47.34094 | 11.84285 | 9595 ft | 184 kts | 229° |
| 2026-05-06 14:48 | 47.33540 | 11.82620 | 9586 ft | 184 kts | 254° |
| 2026-05-06 14:48 | 47.33232 | 11.80801 | 9578 ft | 182 kts | 252° |
| 2026-05-06 14:48 | 47.32858 | 11.78984 | 9281 ft | 185 kts | 247° |
| 2026-05-06 14:48 | 47.32410 | 11.77277 | 8896 ft | 169 kts | 245° |
| 2026-05-06 14:49 | 47.32002 | 11.75749 | 8494 ft | 150 kts | 245° |
| 2026-05-06 14:49 | 47.31629 | 11.74366 | 8187 ft | 142 kts | 246° |
| 2026-05-06 14:49 | 47.31326 | 11.72994 | 7950 ft | 142 kts | 254° |
| 2026-05-06 14:49 | 47.31139 | 11.71568 | 7769 ft | 142 kts | 258° |
| 2026-05-06 14:50 | 47.30986 | 11.70105 | 7591 ft | 143 kts | 258° |
| 2026-05-06 14:50 | 47.30836 | 11.68662 | 7409 ft | 142 kts | 258° |
| 2026-05-06 14:50 | 47.30677 | 11.67232 | 7271 ft | 142 kts | 257° |
| 2026-05-06 14:50 | 47.30473 | 11.65793 | 7148 ft | 142 kts | 256° |
| 2026-05-06 14:51 | 47.30263 | 11.64359 | 7020 ft | 143 kts | 256° |
| 2026-05-06 14:51 | 47.30049 | 11.62922 | 6854 ft | 143 kts | 255° |
| 2026-05-06 14:51 | 47.29841 | 11.61472 | 6667 ft | 144 kts | 255° |
| 2026-05-06 14:51 | 47.29632 | 11.60024 | 6445 ft | 143 kts | 256° |
| 2026-05-06 14:52 | 47.29421 | 11.58590 | 6195 ft | 143 kts | 256° |
| 2026-05-06 14:52 | 47.29214 | 11.57160 | 5946 ft | 142 kts | 255° |
| 2026-05-06 14:52 | 47.29012 | 11.55741 | 5702 ft | 142 kts | 256° |
| 2026-05-06 14:52 | 47.28804 | 11.54322 | 5447 ft | 141 kts | 255° |
| 2026-05-06 14:53 | 47.28587 | 11.52908 | 5182 ft | 141 kts | 254° |
| 2026-05-06 14:53 | 47.28367 | 11.51511 | 4897 ft | 140 kts | 253° |
| 2026-05-06 14:53 | 47.28156 | 11.50118 | 4611 ft | 140 kts | 255° |
| 2026-05-06 14:53 | 47.27944 | 11.48716 | 4329 ft | 140 kts | 255° |
| 2026-05-06 14:54 | 47.27739 | 11.47322 | 4054 ft | 139 kts | 254° |
| 2026-05-06 14:54 | 47.27536 | 11.45928 | 3805 ft | 137 kts | 254° |
| 2026-05-06 14:54 | 47.27255 | 11.44580 | 3777 ft | 135 kts | 238° |
| 2026-05-06 14:54 | 47.26758 | 11.43408 | 3779 ft | 135 kts | 231° |
| 2026-05-06 14:55 | 47.26226 | 11.42263 | 3785 ft | 134 kts | 232° |
| 2026-05-06 14:55 | 47.25700 | 11.41132 | 3789 ft | 135 kts | 233° |
| 2026-05-06 14:55 | 47.25176 | 11.39983 | 3783 ft | 135 kts | 232° |
| 2026-05-06 14:55 | 47.24645 | 11.38822 | 3784 ft | 135 kts | 232° |
| 2026-05-06 14:56 | 47.24121 | 11.37674 | 3787 ft | 135 kts | 233° |
| 2026-05-06 14:56 | 47.23690 | 11.36424 | 3778 ft | 140 kts | 258° |
| 2026-05-06 14:56 | 47.23665 | 11.35011 | 3786 ft | 140 kts | 268° |
| 2026-05-06 14:56 | 47.23689 | 11.33542 | 3798 ft | 140 kts | 268° |
| 2026-05-06 14:57 | 47.23695 | 11.32081 | 3785 ft | 142 kts | 265° |
| 2026-05-06 14:57 | 47.23671 | 11.30626 | 3756 ft | 141 kts | 264° |
| 2026-05-06 14:57 | 47.23556 | 11.29201 | 3668 ft | 139 kts | 257° |
| 2026-05-06 14:57 | 47.23448 | 11.27782 | 3661 ft | 139 kts | 263° |
| 2026-05-06 14:58 | 47.23719 | 11.26394 | 3649 ft | 145 kts | 304° |
| 2026-05-06 14:58 | 47.24529 | 11.25510 | 3545 ft | 149 kts | 347° |
| 2026-05-06 14:58 | 47.25322 | 11.26016 | 2728 ft | 144 kts | 85° |
| 2026-05-06 14:58 | 47.25527 | 11.27310 | 2410 ft | 110 kts | 84° |
| 2026-05-06 14:59 | 47.25575 | 11.28481 | 2323 ft | 128 kts | 92° |
| 2026-05-06 14:59 | 47.25597 | 11.29869 | 2463 ft | 140 kts | 85° |
| 2026-05-06 14:59 | 47.25702 | 11.31314 | 2304 ft | 140 kts | 86° |
| 2026-05-06 14:59 | 47.25840 | 11.32687 | 2040 ft | 132 kts | 83° |
| 2026-05-06 15:00 | 47.25982 | 11.33972 | 1926 ft | 115 kts | 84° |
| 2026-05-06 15:00 | 47.26072 | 11.34819 | 1921 ft | 34 kts | 80° |
| 2026-05-06 15:00 | 47.26101 | 11.35089 | 1919 ft | 15 kts | 81° |
| 2026-05-06 15:00 | 47.26112 | 11.35210 | 1919 ft | 7 kts | 99° |
| 2026-05-06 15:01 | 47.26058 | 11.35251 | 1919 ft | 11 kts | 168° |
| 2026-05-06 15:01 | 47.25972 | 11.35272 | 1919 ft | 12 kts | 170° |
| 2026-05-06 15:01 | 47.25914 | 11.35276 | 1919 ft | 9 kts | 215° |
| 2026-05-06 15:01 | 47.25896 | 11.35169 | 1920 ft | 12 kts | 260° |
| 2026-05-06 15:02 | 47.25882 | 11.35095 | 1920 ft | 6 kts | 200° |
| 2026-05-06 15:02 | 47.25844 | 11.35099 | 1920 ft | 4 kts | 171° |
| 2026-05-06 15:02 | 47.25838 | 11.35101 | 1920 ft | 0 kts | 171° |